EDT,Max TemperatureF,Mean TemperatureF,Min TemperatureF,Max Dew PointF,MeanDew PointF,Min DewpointF,Max Humidity, Mean Humidity, Min Humidity, Max Sea Level PressureIn, Mean Sea Level PressureIn, Min Sea Level PressureIn, Max VisibilityMiles, Mean VisibilityMiles, Min VisibilityMiles, Max Wind SpeedMPH, Mean Wind SpeedMPH, Max Gust SpeedMPH,PrecipitationIn, CloudCover, Events, WindDirDegrees
2013-10-1,,,,,,,,,,,,,,,,,,,,,,
2013-10-2,,,,,,,,,,,,,,,,,,,,,,
2013-10-3,,,,,,,,,,,,,,,,,,,,,,
2013-10-4,,,,,,,,,,,,,,,,,,,,,,
2013-10-5,,,,,,,,,,,,,,,,,,,,,,
2013-10-6,,,,,,,,,,,,,,,,,,,,,,
2013-10-7,50,46,42,45,42,39,100,91,76,30.13,30.06,29.92,10,10,10,12,9,18,0.00,2,,274
2013-10-8,60,50,41,45,39,36,100,66,42,30.31,30.28,30.22,10,10,3,12,5,16,0.00,1,,82
2013-10-9,55,50,44,45,40,36,100,76,51,30.34,30.29,30.26,10,10,10,22,13,29,0.00,0,,116
2013-10-10,59,50,42,52,46,39,100,91,63,30.25,30.18,30.11,10,7,0,14,7,16,0.00,7,Fog,75
2013-10-11,53,50,46,,,,,,,30.10,30.08,30.06,7,1,0,10,4,17,0.00,8,Fog,32
2013-10-12,57,54,51,,,,,,,30.24,30.15,30.07,7,2,0,14,9,18,0.00,8,Fog,99
2013-10-13,55,52,50,55,54,54,100,100,100,30.33,30.28,30.21,10,2,0,16,11,23,0.00,8,Fog,124
2013-10-14,60,55,50,61,59,57,100,100,94,30.34,30.30,30.26,10,2,0,14,8,17,0.00,8,Fog,130
2013-10-15,62,56,50,55,51,46,94,80,68,30.28,30.18,30.08,10,6,0,15,10,17,0.00,4,Fog,135
2013-10-16,64,57,50,55,48,32,100,74,44,30.08,30.02,29.96,10,10,10,12,8,21,0.00,6,,206
2013-10-17,60,51,42,61,54,43,100,100,100,29.96,29.89,29.74,10,4,0,17,8,30,0.00,8,Fog,227
2013-10-18,53,45,37,43,36,30,100,75,41,30.04,29.98,29.90,10,10,7,16,10,28,0.00,3,,263
2013-10-19,51,43,35,45,37,32,100,79,50,30.00,29.89,29.80,10,9,4,18,7,30,0.00,5,,208
2013-10-20,50,42,33,36,31,23,100,74,35,30.08,30.01,29.91,10,10,7,16,10,23,0.00,2,,247
2013-10-21,60,50,39,30,25,19,70,43,20,30.09,30.03,29.93,10,10,10,13,9,20,0.00,0,,208
2013-10-22,50,42,33,43,33,25,100,74,47,29.92,29.88,29.84,10,8,0,17,8,25,0.00,4,Fog,257
2013-10-23,35,34,32,34,31,21,100,92,56,29.88,29.76,29.68,10,4,0,14,3,23,0.00,7,Fog,277
2013-10-24,32,31,30,32,30,23,100,96,69,30.08,29.97,29.87,10,7,0,16,9,25,0.00,8,Fog,268
2013-10-25,33,30,28,32,29,27,100,96,75,30.27,30.20,30.08,10,6,0,10,8,17,0.00,6,Fog,258
2013-10-26,44,35,26,28,20,9,100,62,25,30.22,30.04,29.90,10,10,10,20,10,30,0.00,3,,229
2013-10-27,46,39,32,32,27,21,100,65,37,30.10,30.02,29.93,10,10,10,17,9,24,0.00,4,,266
2013-10-28,53,43,33,32,27,14,87,55,21,30.28,30.19,30.09,10,10,10,8,5,,0.00,0,,258
2013-10-29,55,47,39,32,25,18,66,45,23,30.35,30.31,30.27,10,10,10,9,3,,0.00,1,,168
2013-10-30,53,48,42,54,46,32,100,87,66,30.27,30.21,30.17,10,8,1,9,6,16,0.00,7,,202
2013-10-31,62,56,51,55,52,43,100,87,52,30.17,29.98,29.67,10,9,2,20,10,28,0.00,6,,192